Home > Products > Valid Products > TAF

000
FTUS42 KCAE 021700
TAFDNL
TAF
KDNL 021727Z 0218/0318 18006KT P6SM SCT040 BKN200
     FM030300 VRB03KT P6SM BKN150=



000
FTUS42 KCAE 021700
TAFCUB
TAF
KCUB 021727Z 0218/0318 18006KT P6SM SCT040
     FM030300 00000KT P6SM BKN150
     FM031500 VRB03KT P6SM SCT250=



000
FTUS42 KCAE 021700
TAFAGS
TAF
KAGS 021727Z 0218/0318 17006KT P6SM SCT040 BKN200
     FM030300 VRB03KT P6SM BKN150
     FM030700 00000KT 4SM BR SCT250
      TEMPO 0308/0311 1SM BR
     FM031200 VRB04KT P6SM SCT250=



000
FTUS42 KCAE 021700
TAFOGB
TAF
KOGB 021727Z 0218/0318 17006KT P6SM VCSH SCT040 BKN150
      TEMPO 0219/0222 4SM -TSRA BKN035CB
     FM030300 VRB03KT P6SM BKN150
     FM031000 00000KT 4SM BR SCT250
     FM031200 20004KT P6SM SCT250=



000
FTUS42 KCAE 021700
TAFCAE
TAF
KCAE 021727Z 0218/0318 18007KT P6SM SCT040
     FM030300 VRB03KT P6SM BKN150
     FM031500 19005KT P6SM SCT250=



000
FTUS42 KCAE 021500 AAA
TAFAGS
TAF AMD
KAGS 021509Z 0215/0312 VRB04KT P6SM BKN200
     FM021800 17006KT P6SM SCT040 BKN200
     FM030300 VRB03KT P6SM BKN150=



000
FTUS42 KCAE 021500 AAA
TAFOGB
TAF AMD
KOGB 021509Z 0215/0312 VRB04KT P6SM BKN200
     FM021800 17006KT P6SM SCT040 BKN150
     FM030300 VRB03KT P6SM BKN150=



000
FTUS42 KCAE 021500 AAA
TAFCUB
TAF AMD
KCUB 021509Z 0215/0312 VRB04KT P6SM SCT150
     FM021800 18008KT P6SM SCT040
     FM030300 VRB03KT P6SM BKN150=



000
FTUS42 KCAE 021500 AAA
TAFCAE
TAF AMD
KCAE 021509Z 0215/0312 VRB04KT P6SM SCT150
     FM021800 18008KT P6SM SCT040
     FM030300 VRB03KT P6SM BKN150=



000
FTUS42 KCAE 021500 AAA
TAFDNL
TAF AMD
KDNL 021509Z 0215/0312 VRB03KT P6SM BKN150
     FM021800 18008KT P6SM SCT040 BKN200
     FM030300 VRB03KT P6SM BKN150=



000
FTUS42 KCAE 021200 CCA
TAFOGB
TAF COR
KOGB 021200Z 0212/0312 VRB04KT P6SM BKN200
     FM021800 17006KT P6SM SCT040 BKN150
     FM030300 VRB03KT P6SM BKN150=



000
FTUS42 KCAE 021200 CCA
TAFAGS
TAF COR
KAGS 021200Z 0212/0312 VRB04KT P6SM BKN200
     FM021800 17006KT P6SM SCT040
     FM030300 VRB03KT P6SM BKN150=



000
FTUS42 KCAE 021100
TAFOGB
TAF
KOGB 021135Z 0212/0312 VRB03KT 4SM BR BKN150
      TEMPO 0212/0213 P6SM NSW
     FM021300 VRB04KT P6SM BKN200
     FM021800 17006KT P6SM SCT040 BKN150
     FM030300 VRB03KT P6SM BKN150=



000
FTUS42 KCAE 021100
TAFCUB
TAF
KCUB 021135Z 0212/0312 VRB04KT P6SM SCT150
     FM021800 18008KT P6SM SCT040
     FM030300 VRB03KT P6SM BKN150=



000
FTUS42 KCAE 021100
TAFCAE
TAF
KCAE 021135Z 0212/0312 VRB04KT P6SM SCT150
     FM021800 18008KT P6SM SCT040
     FM030300 VRB03KT P6SM BKN150=



000
FTUS42 KCAE 021100
TAFDNL
TAF
KDNL 021135Z 0212/0312 VRB03KT P6SM BKN150
     FM021800 18008KT P6SM SCT040
     FM030300 VRB03KT P6SM BKN150=



000
FTUS42 KCAE 021100
TAFAGS
TAF
KAGS 021135Z 0212/0312 00000KT 5SM BR BKN150
      TEMPO 0212/0213 6SM BR
     FM021330 VRB04KT P6SM BKN200
     FM021800 17006KT P6SM SCT040
     FM030300 VRB03KT P6SM BKN150=



000
FTUS42 KCAE 020800 AAA
TAFDNL
TAF AMD
KDNL 020831Z 0209/0306 VRB03KT P6SM SCT150
     FM021500 23005KT P6SM SCT030 BKN200
     FM021800 18008KT P6SM SCT040 BKN150
     FM030300 VRB03KT P6SM BKN150=



000
FTUS42 KCAE 020800 AAA
TAFAGS
TAF AMD
KAGS 020831Z 0209/0306 00000KT 5SM BR SCT150
      TEMPO 0209/0212 2SM BR SCT005
     FM021300 23005KT P6SM SCT025 BKN200
     FM021800 17006KT P6SM SCT040 BKN150
     FM030300 VRB03KT P6SM BKN150=



000
FTUS42 KCAE 020800 AAA
TAFOGB
TAF AMD
KOGB 020831Z 0209/0306 VRB03KT P6SM SCT150
     FM021000 VRB03KT 4SM BR SCT005
     FM021200 23005KT P6SM SCT025 BKN200
     FM021800 17006KT P6SM SCT040 BKN150
     FM030300 VRB03KT P6SM BKN150=



000
FTUS42 KCAE 020800 AAA
TAFCAE
TAF AMD
KCAE 020831Z 0209/0306 VRB03KT P6SM SCT150
     FM021500 23005KT P6SM SCT030 BKN200
     FM021800 18008KT P6SM SCT040 BKN150
     FM030300 VRB03KT P6SM BKN150=



000
FTUS42 KCAE 020800 AAA
TAFCUB
TAF AMD
KCUB 020831Z 0209/0306 VRB03KT P6SM SCT150
     FM021500 23005KT P6SM SCT030 BKN200
     FM021800 18008KT P6SM SCT040 BKN150
     FM030300 VRB03KT P6SM BKN150=



000
FTUS42 KCAE 020500
TAFCUB
TAF
KCUB 020520Z 0206/0306 VRB03KT P6SM BKN150
     FM021500 23005KT P6SM SCT030 BKN200
     FM021800 18008KT P6SM SCT040 BKN150
     FM030300 VRB03KT P6SM BKN150=



000
FTUS42 KCAE 020500
TAFCAE
TAF
KCAE 020520Z 0206/0306 VRB03KT P6SM BKN150
     FM021500 23005KT P6SM SCT030 BKN200
     FM021800 18008KT P6SM SCT040 BKN150
     FM030300 VRB03KT P6SM BKN150=



000
FTUS42 KCAE 020500
TAFOGB
TAF
KOGB 020520Z 0206/0306 VRB03KT P6SM BKN150
     FM020900 VRB03KT 4SM BR SCT005
     FM021200 23005KT P6SM SCT025 BKN200
     FM021800 17006KT P6SM SCT040 BKN150
     FM030300 VRB03KT P6SM BKN150=



000
FTUS42 KCAE 020500
TAFDNL
TAF
KDNL 020520Z 0206/0306 VRB03KT P6SM BKN150
     FM021500 23005KT P6SM SCT030 BKN200
     FM021800 18008KT P6SM SCT040 BKN150
     FM030300 VRB03KT P6SM BKN150=



000
FTUS42 KCAE 020500
TAFAGS
TAF
KAGS 020520Z 0206/0306 VRB03KT P6SM BKN150
     FM020900 VRB03KT 4SM BR SCT005
     FM021200 23005KT P6SM SCT025 BKN200
     FM021800 17006KT P6SM SCT040 BKN150
     FM030300 VRB03KT P6SM BKN150=



000
FTUS42 KCAE 020200 AAA
TAFDNL
TAF AMD
KDNL 020250Z 0203/0224 VRB04KT P6SM BKN200
     FM021500 24005KT P6SM SCT050 BKN200=



000
FTUS42 KCAE 020200 AAA
TAFCUB
TAF AMD
KCUB 020250Z 0203/0224 VRB03KT P6SM BKN150
     FM021500 23005KT P6SM SCT050 BKN200=



000
FTUS42 KCAE 020200 AAA
TAFAGS
TAF AMD
KAGS 020250Z 0203/0224 VRB03KT P6SM VCSH BKN150
     FM020700 VRB03KT 4SM BR SCT003 SCT200
      TEMPO 0208/0211 2SM BR BKN003
     FM021200 VRB04KT P6SM SCT050 BKN200=



000
FTUS42 KCAE 020200 AAA
TAFCAE
TAF AMD
KCAE 020250Z 0203/0224 VRB04KT P6SM BKN150
     FM021500 23006KT P6SM SCT050 BKN200=



000
FTUS42 KCAE 020200 AAA
TAFOGB
TAF AMD
KOGB 020250Z 0203/0224 VRB04KT P6SM BKN150
     FM020900 VRB03KT 4SM BR SCT005
     FM021200 23005KT P6SM SCT050 BKN200=



000
FTUS42 KCAE 012300
TAFDNL
TAF
KDNL 012339Z 0200/0224 VRB05KT P6SM VCTS BKN060CB BKN120
      TEMPO 0200/0202 VRB01G20KT 3SM +TSRA BR SCT030 BKN050CB OVC100
     FM020200 VRB04KT P6SM SCT200
     FM021500 24005KT P6SM SCT050 BKN200=



000
FTUS42 KCAE 012300
TAFCUB
TAF
KCUB 012339Z 0200/0224 VRB03KT P6SM VCSH SCT060 BKN120
      TEMPO 0200/0201 4SM SHRA BR SCT020 BKN050 OVC100
     FM020200 VRB03KT P6SM SCT200
     FM021500 23005KT P6SM SCT050 BKN200=



000
FTUS42 KCAE 012300
TAFCAE
TAF
KCAE 012339Z 0200/0224 VRB03KT P6SM VCSH SCT060 BKN120
      TEMPO 0200/0201 4SM SHRA BR SCT020 BKN050 OVC100
     FM020200 VRB04KT P6SM SCT200
     FM021500 23006KT P6SM SCT050 BKN200=



000
FTUS42 KCAE 012300
TAFAGS
TAF
KAGS 012339Z 0200/0224 VRB05KT P6SM VCTS BKN060CB BKN120
      TEMPO 0200/0202 VRB01G20KT 3SM +TSRA BR SCT030 BKN050CB OVC100
     FM020200 VRB03KT P6SM SCT200
     FM020700 VRB03KT 4SM BR SCT003 SCT200
      TEMPO 0208/0211 2SM BR BKN003
     FM021200 VRB04KT P6SM SCT050 BKN200=



000
FTUS42 KCAE 012300
TAFOGB
TAF
KOGB 012339Z 0200/0224 VRB05KT P6SM VCSH SCT050 BKN150
     FM020200 VRB04KT P6SM SCT200
     FM020900 VRB03KT 4SM BR SCT005
     FM021200 23005KT P6SM SCT050 BKN200=



000
FTUS42 KCAE 012100 AAB
TAFCAE
TAF AMD
KCAE 012155Z 0122/0218 16007KT P6SM SCT070 BKN180
     FM012200 16006KT P6SM VCSH SCT060 BKN150
      TEMPO 0122/0124 VRB20G35KT 3SM +TSRA BR SCT020 BKN050CB OVC100
     FM020200 VRB04KT P6SM SCT200
     FM021500 24004KT P6SM SCT200=



000
FTUS42 KCAE 012100 AAA
TAFDNL
TAF AMD
KDNL 012131Z 0122/0218 VRB05KT P6SM VCSH SCT060 BKN150
     FM020200 VRB03KT P6SM SCT200
     FM021500 24005KT P6SM SCT200=



000
FTUS42 KCAE 012100 AAA
TAFCUB
TAF AMD
KCUB 012131Z 0122/0218 VRB03KT P6SM SCT070 BKN180
     FM012200 16006KT P6SM VCSH SCT060 BKN150
      TEMPO 0122/0124 VRB10G20KT 3SM +TSRA BR SCT020 BKN050CB OVC100
     FM020200 VRB03KT P6SM SCT200
     FM021500 24004KT P6SM SCT200=



000
FTUS42 KCAE 012100 AAA
TAFOGB
TAF AMD
KOGB 012131Z 0122/0218 VRB05KT P6SM VCSH SCT050 BKN150
     FM020200 VRB04KT P6SM SCT250
     FM020900 VRB03KT 4SM BR SCT005
     FM021200 23005KT P6SM SCT200=



000
FTUS42 KCAE 012100 AAA
TAFAGS
TAF AMD
KAGS 012131Z 0122/0218 VRB05KT P6SM VCSH SCT060 BKN150
     FM020200 VRB03KT P6SM SCT200
     FM020700 VRB03KT 4SM BR FEW250
      TEMPO 0207/0211 1SM BR SCT002
     FM021200 VRB04KT P6SM SCT200=



000
FTUS42 KCAE 012100 AAA
TAFCAE
TAF AMD
KCAE 012131Z 0122/0218 16007KT P6SM SCT070 BKN180
     FM012200 16006KT P6SM VCSH SCT060 BKN150
      TEMPO 0122/0124 VRB10G20KT 3SM +TSRA BR SCT020 BKN050CB OVC100
     FM020200 VRB04KT P6SM SCT200
     FM021500 24004KT P6SM SCT200=



000
FTUS42 KCAE 011700
TAFAGS
TAF
KAGS 011725Z 0118/0218 VRB05KT P6SM SCT050
     FM020200 VRB03KT P6SM SCT250
     FM020700 00000KT 4SM BR FEW250
      TEMPO 0207/0211 1SM BR SCT002
     FM021200 VRB03KT P6SM SCT250=



000
FTUS42 KCAE 011700
TAFCAE
TAF
KCAE 011725Z 0118/0218 18007KT P6SM SCT050
     FM020200 VRB04KT P6SM SCT250=



000
FTUS42 KCAE 011700
TAFCUB
TAF
KCUB 011725Z 0118/0218 VRB03KT P6SM SCT050
     FM020200 00000KT P6SM SCT250
     FM021500 24004KT P6SM SCT250=



000
FTUS42 KCAE 011700
TAFOGB
TAF
KOGB 011725Z 0118/0218 VRB05KT P6SM SCT050
     FM020200 17004KT P6SM SCT250
     FM020900 00000KT 4SM BR SCT005
     FM021200 24004KT P6SM SCT250=



000
FTUS42 KCAE 011700
TAFDNL
TAF
KDNL 011725Z 0118/0218 VRB05KT P6SM SCT050
     FM020200 VRB03KT P6SM SCT250=



000
FTUS42 KCAE 011400 AAA
TAFDNL
TAF AMD
KDNL 011443Z 0115/0212 VRB04KT P6SM SCT250
     FM011800 21006KT P6SM SCT050
     FM020200 VRB03KT P6SM SCT250=



000
FTUS42 KCAE 011400 AAA
TAFOGB
TAF AMD
KOGB 011443Z 0115/0212 VRB03KT P6SM SCT250
     FM011800 18005KT P6SM SCT050
     FM020200 VRB03KT P6SM SCT250
     FM020900 VRB03KT 3SM BR SCT005=



000
FTUS42 KCAE 011400 AAA
TAFCAE
TAF AMD
KCAE 011443Z 0115/0212 VRB03KT P6SM SCT200
     FM011800 18007KT P6SM SCT050
     FM020200 18003KT P6SM SCT250=



000
FTUS42 KCAE 011400 AAA
TAFCUB
TAF AMD
KCUB 011443Z 0115/0212 VRB03KT P6SM SCT200
     FM011800 18007KT P6SM SCT050
     FM020200 18003KT P6SM SCT250=



000
FTUS42 KCAE 011400 AAA
TAFAGS
TAF AMD
KAGS 011443Z 0115/0212 VRB03KT P6SM SCT250
     FM011800 21006KT P6SM SCT050
     FM020200 VRB03KT P6SM SCT250
     FM020900 VRB03KT 3SM BR SCT005=



000
FTUS42 KCAE 011100 CCA
TAFAGS
TAF COR
KAGS 011157Z 0112/0212 VRB04KT P6SM FEW030 OVC150
     FM011800 21006KT P6SM SCT050 BKN150
     FM020200 VRB03KT P6SM SCT250
     FM020900 VRB03KT 3SM BR SCT005=



000
FTUS42 KCAE 011100
TAFDNL
TAF
KDNL 011126Z 0112/0212 VRB03KT P6SM OVC150
     FM011300 VRB04KT P6SM FEW035 OVC150
     FM011800 21006KT P6SM SCT050 BKN150
     FM020200 VRB03KT P6SM SCT250=



000
FTUS42 KCAE 011100
TAFAGS
TAF
KAGS 011126Z 0112/0212 00000KT 5SM BR FEW003 BKN150
      TEMPO 0112/0113 P6SM NSW
     FM011300 VRB04KT P6SM FEW030 OVC150
     FM011800 21006KT P6SM SCT050 BKN150
     FM020200 VRB03KT P6SM SCT250
     FM020900 VRB03KT 3SM BR SCT005=



000
FTUS42 KCAE 011100
TAFCUB
TAF
KCUB 011126Z 0112/0212 VRB03KT P6SM SCT150
     FM011800 18007KT P6SM SCT050 BKN150
     FM020200 18003KT P6SM SCT250=



000
FTUS42 KCAE 011100
TAFOGB
TAF
KOGB 011126Z 0112/0212 VRB03KT P6SM SCT250
      TEMPO 0112/0113 4SM BR BKN002
     FM011800 18005KT P6SM SCT050 BKN150
     FM020200 VRB03KT P6SM SCT250
     FM020900 VRB03KT 3SM BR SCT005=



000
FTUS42 KCAE 011100
TAFCAE
TAF
KCAE 011126Z 0112/0212 23005KT P6SM SCT150
     FM011800 18007KT P6SM SCT050 BKN150
     FM020200 18003KT P6SM SCT250=



000
FTUS42 KCAE 010900 AAA
TAFCUB
TAF AMD
KCUB 010953Z 0110/0206 VRB03KT P6SM SCT150
     FM011300 23005KT P6SM FEW035 SCT200
     FM011700 25006KT P6SM SCT050 BKN150=



000
FTUS42 KCAE 010900 AAA
TAFCAE
TAF AMD
KCAE 010953Z 0110/0206 VRB03KT P6SM SCT150
     FM011300 23005KT P6SM FEW035 SCT200
     FM011700 25006KT P6SM SCT050 BKN150=



000
FTUS42 KCAE 010900 CCA
TAFAGS
TAF COR
KAGS 010950Z 0110/0206 00000KT 5SM BR SCT150
      TEMPO 0110/0112 2SM BR BKN002
     FM011300 VRB04KT P6SM FEW030 SCT200
     FM011700 26006KT P6SM SCT050 BKN150=



000
FTUS42 KCAE 010900 AAA
TAFDNL
TAF AMD
KDNL 010950Z 0110/0206 VRB03KT P6SM SCT150
     FM011200 VRB04KT P6SM FEW035 SCT200
     FM011700 26006KT P6SM SCT050 BKN150=



000
FTUS42 KCAE 010900 AAC
TAFOGB
TAF AMD
KOGB 010948Z 0110/0206 VRB03KT P6SM SCT250
     FM011300 VRB05KT P6SM SCT035
     FM011700 25006KT P6SM SCT050 BKN150=



000
FTUS42 KCAE 010900 AAD
TAFAGS
TAF AMD
KAGS 010947Z 0110/0206 00000KT 5SM BR SCT100
      TEMPO 0110/0112 2SM BR BKN002
     FM011300 VRB04KT P6SM FEW030 SCT200
     FM011700 26006KT P6SM SCT050 BKN150=



000
FTUS42 KCAE 010900 AAC
TAFAGS
TAF AMD
KAGS 010928Z 0109/0206 00000KT 4SM BR SCT100
      TEMPO 0109/0112 1SM BR BKN002
     FM011300 VRB04KT P6SM FEW050 SCT200
     FM011700 26006KT P6SM SCT050 BKN150=



000
FTUS42 KCAE 010900 AAB
TAFOGB
TAF AMD
KOGB 010910Z 0109/0206 VRB03KT P6SM SCT250
      TEMPO 0109/0112 4SM BR SCT004
     FM011300 VRB05KT P6SM SCT050
     FM011700 25006KT P6SM SCT050 BKN150=



000
FTUS42 KCAE 010900 AAB
TAFAGS
TAF AMD
KAGS 010909Z 0109/0206 VRB03KT 4SM BR SCT100
      TEMPO 0109/0112 1SM BR SCT010
     FM011300 VRB04KT P6SM FEW050 SCT200
     FM011700 26006KT P6SM SCT050 BKN150=



000
FTUS42 KCAE 010800 AAA
TAFOGB
TAF AMD
KOGB 010816Z 0108/0206 VRB03KT P6SM SCT150
     FM011000 VRB03KT 4SM BR BKN004
     FM011300 VRB05KT P6SM SCT050
     FM011700 25006KT P6SM SCT050 BKN150=



000
FTUS42 KCAE 010600 AAA
TAFAGS
TAF AMD
KAGS 010641Z 0107/0206 VRB03KT 4SM BR SCT100
      TEMPO 0107/0110 2SM BR SCT010
     FM011000 VRB03KT 2SM BR BKN005
     FM011300 VRB04KT P6SM FEW050 SCT200
     FM011700 26006KT P6SM SCT050 BKN150=



000
FTUS42 KCAE 010500
TAFAGS
TAF
KAGS 010535Z 0106/0206 VRB04KT P6SM SCT060 BKN120
     FM010800 VRB03KT 4SM BR SCT010
     FM011000 VRB03KT 2SM BR BKN005
     FM011300 VRB04KT P6SM FEW050 SCT200
     FM011700 26006KT P6SM SCT050 BKN150=



000
FTUS42 KCAE 010500
TAFOGB
TAF
KOGB 010535Z 0106/0206 VRB04KT P6SM SCT070 BKN090
     FM010800 VRB03KT 4SM BR SCT010
     FM011000 VRB03KT 2SM BR BKN004
     FM011300 VRB05KT P6SM SCT050
     FM011700 25006KT P6SM SCT050 BKN150=



000
FTUS42 KCAE 010500
TAFCAE
TAF
KCAE 010535Z 0106/0206 VRB04KT P6SM SCT060 BKN120
     FM011100 VRB03KT 5SM BR SCT005
     FM011300 23005KT P6SM FEW050 SCT200
     FM011700 25006KT P6SM SCT050 BKN150=



000
FTUS42 KCAE 010500
TAFCUB
TAF
KCUB 010535Z 0106/0206 VRB04KT P6SM SCT060 BKN120
     FM011100 VRB03KT 5SM BR SCT005
     FM011300 23005KT P6SM FEW050 SCT200
     FM011700 25006KT P6SM SCT050 BKN150=



000
FTUS42 KCAE 010500
TAFDNL
TAF
KDNL 010535Z 0106/0206 VRB04KT P6SM SCT060 BKN120
     FM010900 VRB03KT 5SM BR SCT010
     FM011200 VRB04KT P6SM FEW050 SCT200
     FM011700 26006KT P6SM SCT050 BKN150=



000
FTUS42 KCAE 010200 AAA
TAFCUB
TAF AMD
KCUB 010240Z 0103/0124 VRB04KT P6SM SCT060 BKN120
     FM011100 VRB03KT 5SM BR SCT005
     FM011300 23005KT P6SM FEW050 SCT200
     FM011600 25006KT P6SM SCT050 BKN150=



000
FTUS42 KCAE 010200 AAA
TAFAGS
TAF AMD
KAGS 010240Z 0103/0124 VRB04KT P6SM SCT060 BKN120
     FM010600 VRB03KT 4SM BR SCT010
     FM010900 VRB03KT 2SM BR BKN005
     FM011300 VRB04KT P6SM FEW050 SCT200
     FM011600 26006KT P6SM SCT050 BKN150=



000
FTUS42 KCAE 010200 AAA
TAFDNL
TAF AMD
KDNL 010240Z 0103/0124 VRB04KT P6SM SCT060 BKN120
     FM010900 VRB03KT 5SM BR SCT010
     FM011200 VRB04KT P6SM FEW050 SCT200
     FM011600 26006KT P6SM SCT050 BKN150=



000
FTUS42 KCAE 010200 AAA
TAFCAE
TAF AMD
KCAE 010240Z 0103/0124 VRB04KT P6SM SCT060 BKN120
     FM011100 VRB03KT 5SM BR SCT005
     FM011300 23005KT P6SM FEW050 SCT200
     FM011600 25006KT P6SM SCT050 BKN150=



000
FTUS42 KCAE 010200 AAA
TAFOGB
TAF AMD
KOGB 010240Z 0103/0124 VRB04KT P6SM SCT070 BKN090
     FM010800 VRB03KT 4SM BR SCT010
     FM011000 VRB03KT 2SM BR BKN004
     FM011300 VRB05KT P6SM SCT050
     FM011600 25006KT P6SM SCT050 BKN150=



000
FTUS42 KCAE 312300
TAFDNL
TAF
KDNL 312340Z 0100/0124 VRB03KT P6SM VCSH SCT060 BKN100
     FM010100 VRB04KT P6SM SCT060 BKN150
     FM010900 VRB03KT 5SM BR SCT010
     FM011200 VRB04KT P6SM FEW050 SCT200
     FM011600 26006KT P6SM SCT050 BKN150=



000
FTUS42 KCAE 312300
TAFCUB
TAF
KCUB 312340Z 0100/0124 VRB05KT P6SM VCSH BKN060 BKN100
      TEMPO 0100/0101 VRB10G15KT 5SM SHRA BR SCT025 BKN050 OVC080
     FM010200 VRB04KT P6SM SCT060 BKN120
     FM011100 VRB03KT 5SM BR SCT005
     FM011400 23005KT P6SM FEW050 SCT200
     FM011600 25006KT P6SM SCT050 BKN150=



000
FTUS42 KCAE 312300
TAFCAE
TAF
KCAE 312340Z 0100/0124 VRB05KT P6SM VCSH BKN060 BKN100
      TEMPO 0100/0101 VRB10G15KT 5SM SHRA BR SCT025 BKN050 OVC080
     FM010200 VRB04KT P6SM SCT060 BKN120
     FM011100 VRB03KT 5SM BR SCT005
     FM011300 23005KT P6SM FEW050 SCT200
     FM011600 25006KT P6SM SCT050 BKN150=



000
FTUS42 KCAE 312300
TAFAGS
TAF
KAGS 312340Z 0100/0124 VRB05KT P6SM VCSH SCT060 BKN100
     FM010100 VRB04KT P6SM SCT060 BKN120
     FM010700 VRB03KT 4SM BR SCT010
     FM010900 VRB03KT 2SM BR SCT005
     FM011200 VRB04KT P6SM FEW050 SCT200
     FM011600 26006KT P6SM SCT050 BKN150=



000
FTUS42 KCAE 312300
TAFOGB
TAF
KOGB 312340Z 0100/0124 VRB05KT P6SM VCSH SCT060 BKN120
      TEMPO 0100/0102 VRB10G20KT 5SM -SHRA BR SCT035 BKN050 OVC090
     FM010300 VRB04KT P6SM SCT060 BKN120
     FM010800 VRB03KT 4SM BR SCT200
      TEMPO 0111/0113 2SM BR BKN004
     FM011300 VRB05KT P6SM SCT050
     FM011600 25006KT P6SM SCT050 BKN150=



000
FTUS42 KCAE 312100 AAA
TAFOGB
TAF AMD
KOGB 312147Z 3122/0118 16006KT P6SM VCTS BKN060CB
      TEMPO 3122/3124 VRB10G20KT 4SM TSRA BR SCT035 BKN050CB OVC090
     FM010800 VRB03KT 4SM BR SCT250
      TEMPO 0111/0113 2SM BR BKN004
     FM011300 VRB05KT P6SM SCT050=



000
FTUS42 KCAE 312000 AAB
TAFCUB
TAF AMD
KCUB 312052Z 3121/0118 VRB03KT P6SM VCSH SCT050
      TEMPO 3121/3123 VRB15G30KT 4SM SHRA BR SCT015 BKN040 OVC060
     FM312300 VRB04KT P6SM SCT100
     FM011100 00000KT P6SM SCT250
     FM011400 23005KT P6SM FEW050 SCT250=



000
FTUS42 KCAE 312000 AAC
TAFCAE
TAF AMD
KCAE 312051Z 3121/0118 VRB05KT P6SM VCSH SCT050
      TEMPO 3121/3123 VRB20G35KT 4SM TSRA BR SCT015 BKN040CB OVC060
     FM312300 VRB04KT P6SM SCT100
     FM011100 VRB03KT 5SM BR SCT005
     FM011300 23005KT P6SM FEW050 SCT250=



000
FTUS42 KCAE 312000 AAB
TAFDNL
TAF AMD
KDNL 312041Z 3121/0118 VRB05KT P6SM VCTS BKN040CB BKN080
      TEMPO 3121/3123 VRB10G20KT 4SM TSRA BR SCT015 BKN035CB OVC060
     FM312300 VRB03KT P6SM SCT050 BKN100
     FM011400 VRB04KT P6SM FEW050 SCT250=



000
FTUS42 KCAE 312000 AAB
TAFAGS
TAF AMD
KAGS 312040Z 3121/0118 VRB05KT P6SM VCTS BKN050CB BKN080
      TEMPO 3121/3123 VRB10G20KT 4SM TSRA BR SCT015 BKN035CB OVC060
     FM312300 VRB03KT P6SM SCT050 BKN100
     FM010800 00000KT 4SM BR SCT250
     FM011200 VRB04KT P6SM FEW050 SCT250=



000
FTUS42 KCAE 312000 AAB
TAFCAE
TAF AMD
KCAE 312035Z 3121/0118 VRB05KT P6SM VCSH SCT050
      TEMPO 3121/3123 VRB10G20KT 4SM TSRA BR SCT015 BKN040CB OVC060
     FM312300 VRB04KT P6SM SCT100
     FM011100 VRB03KT 5SM BR SCT005
     FM011300 23005KT P6SM FEW050 SCT250=



000
FTUS42 KCAE 312000 AAA
TAFCUB
TAF AMD
KCUB 312024Z 3120/0118 VRB03KT P6SM VCSH SCT050
      TEMPO 3121/3123 4SM SHRA BR SCT015 BKN040 OVC060
     FM312300 VRB04KT P6SM SCT100
     FM011100 00000KT P6SM SCT250
     FM011400 23005KT P6SM FEW050 SCT250=



000
FTUS42 KCAE 312000 AAA
TAFCAE
TAF AMD
KCAE 312021Z 3120/0118 VRB05KT P6SM VCSH SCT050
      TEMPO 3120/3123 4SM SHRA BR SCT015 BKN040 OVC060
     FM312300 VRB04KT P6SM SCT100
     FM011100 VRB03KT 5SM BR SCT005
     FM011300 23005KT P6SM FEW050 SCT250=



000
FTUS42 KCAE 311900 AAA
TAFDNL
TAF AMD
KDNL 311943Z 3120/0118 VRB05KT P6SM VCSH BKN040
     FM312300 VRB03KT P6SM SCT050 BKN100
     FM011400 VRB04KT P6SM FEW050 SCT250=



000
FTUS42 KCAE 311900 AAA
TAFAGS
TAF AMD
KAGS 311942Z 3120/0118 VRB05KT P6SM VCSH BKN040
     FM312300 VRB03KT P6SM SCT050 BKN100
     FM010800 00000KT 4SM BR SCT250
     FM011200 VRB04KT P6SM FEW050 SCT250=



000
FTUS42 KCAE 311800 CCA
TAFCUB
TAF COR
KCUB 311803Z 3118/0118 VRB03KT P6SM VCSH SCT050
     FM312300 VRB04KT P6SM SCT100
     FM011100 00000KT P6SM SCT250
     FM011400 23005KT P6SM FEW050 SCT250=



000
FTUS42 KCAE 311800 CCA
TAFCAE
TAF COR
KCAE 311803Z 3118/0118 VRB05KT P6SM VCSH SCT050
     FM312300 VRB04KT P6SM SCT100
     FM011100 00000KT 5SM BR SCT005
     FM011300 23005KT P6SM FEW050 SCT250=



000
FTUS42 KCAE 311700
TAFAGS
TAF
KAGS 311739Z 3118/0118 VRB05KT P6SM VCSH SCT040
      TEMPO 3118/3121 4SM -SHRA BKN035
     FM312300 VRB03KT P6SM SCT100
     FM010800 00000KT 4SM BR SCT250
     FM011200 VRB04KT P6SM FEW050 SCT250=



000
FTUS42 KCAE 311700
TAFOGB
TAF
KOGB 311739Z 3118/0118 16006KT P6SM SCT050
     FM010800 00000KT 4SM BR SCT250
      TEMPO 0111/0113 2SM BR BKN004
     FM011300 VRB05KT P6SM SCT050=



000
FTUS42 KCAE 311700
TAFCAE
TAF
KCAE 311739Z 3118/0118 VRB05KT P6SM SCT050
     FM011100 00000KT 5SM BR SCT005
     FM011300 23005KT P6SM FEW050 SCT250=



000
FTUS42 KCAE 311700
TAFDNL
TAF
KDNL 311739Z 3118/0118 VRB05KT P6SM VCSH SCT040
      TEMPO 3118/3121 4SM -SHRA BKN035
     FM312300 VRB03KT P6SM SCT100
     FM011400 VRB04KT P6SM FEW050 SCT250=



000
FTUS42 KCAE 311700
TAFCUB
TAF
KCUB 311739Z 3118/0118 VRB03KT P6SM SCT050
     FM011100 00000KT P6SM SCT250
     FM011400 23005KT P6SM FEW050 SCT250=



000
FTUS42 KCAE 311400 AAA
TAFCAE
TAF AMD
KCAE 311450Z 3115/0112 VRB03KT P6SM SCT250
     FM311800 18006KT P6SM SCT045 BKN150=



000
FTUS42 KCAE 311400 AAA
TAFAGS
TAF AMD
KAGS 311450Z 3115/0112 VRB05KT P6SM SCT120
     FM311800 18006KT P6SM SCT045 BKN150
     FM010800 VRB03KT 4SM BR BKN250=



000
FTUS42 KCAE 311400 AAA
TAFCUB
TAF AMD
KCUB 311450Z 3115/0112 VRB03KT P6SM SCT250
     FM311800 18006KT P6SM SCT045 BKN150=



000
FTUS42 KCAE 311400 AAA
TAFOGB
TAF AMD
KOGB 311450Z 3115/0112 VRB03KT P6SM SCT250
     FM311800 18006KT P6SM SCT045 BKN150
     FM010800 VRB03KT 4SM BR BKN250=



000
FTUS42 KCAE 311400 AAA
TAFDNL
TAF AMD
KDNL 311450Z 3115/0112 VRB05KT P6SM SCT120
     FM311800 18006KT P6SM SCT045 BKN150=



000
FTUS42 KCAE 311200 CCA
TAFCUB
TAF COR
KCUB 311210Z 3112/0112 VRB03KT P6SM SCT015 BKN150
     FM311500 VRB04KT P6SM SCT015 BKN035
     FM311600 19005KT P6SM SCT030 BKN040
     FM311800 18006KT P6SM SCT045 BKN150=



000
FTUS42 KCAE 311200 CCA
TAFCAE
TAF COR
KCAE 311210Z 3112/0112 VRB03KT P6SM SCT015 BKN150
     FM311500 VRB04KT P6SM SCT015 BKN035
     FM311600 19005KT P6SM SCT030 BKN040
     FM311800 18006KT P6SM SCT045 BKN150=



000
FTUS42 KCAE 311100
TAFOGB
TAF
KOGB 311129Z 3112/0112 VRB03KT P6SM BKN004
      TEMPO 3112/3114 SCT005 BKN120
     FM311400 20005KT P6SM SCT012 BKN035
     FM311600 19005KT P6SM SCT030 BKN040
     FM311800 18006KT P6SM SCT045 BKN150
     FM010800 VRB03KT 4SM BR BKN250=



000
FTUS42 KCAE 311100
TAFCUB
TAF
KCUB 311129Z 3112/0112 VRB03KT P6SM SCT008 BKN015
     FM311400 VRB04KT P6SM SCT015 BKN035
     FM311600 19005KT P6SM SCT030 BKN040
     FM311800 18006KT P6SM SCT045 BKN150=



000
FTUS42 KCAE 311100
TAFDNL
TAF
KDNL 311129Z 3112/0112 VRB03KT P6SM VCSH SCT015 BKN045
      TEMPO 3112/3113 5SM -SHRA BR BKN015
     FM311400 20005KT P6SM SCT010 SCT018 BKN045
     FM311600 19005KT P6SM SCT030 BKN040
     FM311800 18006KT P6SM SCT045 BKN150=



000
FTUS42 KCAE 311100
TAFCAE
TAF
KCAE 311129Z 3112/0112 VRB03KT P6SM SCT008 BKN015
     FM311400 VRB04KT P6SM SCT015 BKN035
     FM311600 19005KT P6SM SCT030 BKN040
     FM311800 18006KT P6SM SCT045 BKN150=



000
FTUS42 KCAE 311100
TAFAGS
TAF
KAGS 311129Z 3112/0112 VRB03KT P6SM VCSH SCT015 BKN045
     FM311400 20005KT P6SM SCT010 SCT018 BKN045
     FM311600 19005KT P6SM SCT030 BKN040
     FM311800 18006KT P6SM SCT045 BKN150
     FM010800 VRB03KT 4SM BR BKN250=



000
FTUS42 KCAE 311000 AAC
TAFAGS
TAF AMD
KAGS 311012Z 3110/0106 VRB03KT P6SM VCSH SCT015 BKN045
      TEMPO 3110/3111 6SM -RA BR BKN015
     FM311400 20005KT P6SM SCT010 SCT018 BKN045
     FM311600 19005KT P6SM SCT030 BKN040
     FM311800 18006KT P6SM SCT045 BKN150=



000
FTUS42 KCAE 311000 AAB
TAFCAE
TAF AMD
KCAE 311012Z 3110/0106 VRB03KT P6SM SCT008 BKN070
      TEMPO 3111/3113 BKN008
     FM311400 VRB04KT P6SM SCT015 BKN035
     FM311600 19005KT P6SM SCT030 BKN040
     FM311800 18006KT P6SM SCT045 BKN150=



000
FTUS42 KCAE 311000 AAB
TAFCUB
TAF AMD
KCUB 311012Z 3110/0106 VRB03KT P6SM SCT008 BKN070
      TEMPO 3111/3113 BKN008
     FM311400 VRB04KT P6SM SCT015 BKN035
     FM311600 19005KT P6SM SCT030 BKN040
     FM311800 18006KT P6SM SCT045 BKN150=



000
FTUS42 KCAE 311000 AAB
TAFOGB
TAF AMD
KOGB 311012Z 3110/0106 VRB03KT P6SM SCT008 BKN070
      TEMPO 3111/3113 BKN008
     FM311500 20005KT P6SM SCT012 BKN035
     FM311600 19005KT P6SM SCT030 BKN040
     FM311800 18006KT P6SM SCT045 BKN150=



000
FTUS42 KCAE 311000 AAC
TAFDNL
TAF AMD
KDNL 311012Z 3110/0106 VRB03KT P6SM VCSH SCT015 BKN045
      TEMPO 3110/3111 6SM -RA BR BKN015
     FM311400 20005KT P6SM SCT010 SCT018 BKN045
     FM311600 19005KT P6SM SCT030 BKN040
     FM311800 18006KT P6SM SCT045 BKN150=



000
FTUS42 KCAE 310900 AAB
TAFDNL
TAF AMD
KDNL 310929Z 3109/0106 VRB03KT P6SM VCSH SCT012 BKN045
     FM311400 20005KT P6SM SCT010 SCT018 BKN045
     FM311600 19005KT P6SM SCT030 BKN040=



000
FTUS42 KCAE 310900 AAB
TAFAGS
TAF AMD
KAGS 310928Z 3109/0106 VRB03KT P6SM VCSH SCT012 BKN045
     FM311400 20005KT P6SM SCT010 SCT018 BKN045
     FM311600 19005KT P6SM SCT030 BKN040=



000
FTUS42 KCAE 310800 AAA
TAFCUB
TAF AMD
KCUB 310831Z 3109/0106 VRB03KT P6SM BKN100
     FM311000 VRB03KT P6SM SCT008 BKN100
      TEMPO 3111/3113 BKN008
     FM311300 VRB03KT 5SM BR BKN008
     FM311400 VRB04KT P6SM SCT015 BKN022
     FM311600 19005KT P6SM SCT030 BKN040=



000
FTUS42 KCAE 310800 AAA
TAFCAE
TAF AMD
KCAE 310831Z 3109/0106 VRB03KT P6SM BKN100
     FM311000 VRB03KT P6SM SCT008 BKN100
      TEMPO 3111/3113 BKN008
     FM311300 VRB03KT 5SM BR BKN008
     FM311400 VRB04KT P6SM SCT015 BKN022
     FM311600 19005KT P6SM SCT030 BKN040=



000
FTUS42 KCAE 310800 AAA
TAFOGB
TAF AMD
KOGB 310831Z 3109/0106 VRB03KT P6SM BKN100
     FM311000 VRB03KT P6SM SCT008 BKN100
      TEMPO 3111/3113 BKN008
     FM311300 VRB03KT 5SM BR BKN008
     FM311500 20005KT P6SM SCT012 BKN020
     FM311600 19005KT P6SM SCT030 BKN040=



000
FTUS42 KCAE 310800 AAA
TAFAGS
TAF AMD
KAGS 310829Z 3108/0106 VRB03KT P6SM BKN012
     FM310900 VRB03KT P6SM BKN008
     FM311400 20005KT P6SM SCT010 BKN018
     FM311600 19005KT P6SM SCT030 BKN040=



000
FTUS42 KCAE 310800 AAA
TAFDNL
TAF AMD
KDNL 310828Z 3108/0106 VRB03KT P6SM BKN008
     FM311400 20005KT P6SM SCT010 BKN018
     FM311600 19005KT P6SM SCT030 BKN040=



000
FTUS42 KCAE 310500
TAFCUB
TAF
KCUB 310539Z 3106/0106 13003KT P6SM SCT120
     FM311000 VRB03KT 5SM BR SCT004
      TEMPO 3111/3113 BKN003
     FM311300 VRB03KT 6SM BR BKN008
     FM311400 VRB04KT P6SM SCT015 BKN022
     FM311600 19005KT P6SM SCT030 BKN040=



000
FTUS42 KCAE 310500
TAFOGB
TAF
KOGB 310539Z 3106/0106 14003KT P6SM SCT120
     FM310800 VRB03KT 4SM BR SCT003
     FM311100 VRB03KT 1SM BR BKN003
     FM311300 VRB03KT 4SM BR BKN008
     FM311500 20005KT P6SM SCT012 BKN020
     FM311600 19005KT P6SM SCT030 BKN040=



000
FTUS42 KCAE 310500
TAFCAE
TAF
KCAE 310539Z 3106/0106 13005KT P6SM SCT100
     FM311000 VRB03KT 4SM BR SCT004
      TEMPO 3111/3113 BKN003
     FM311300 VRB03KT 5SM BR BKN008
     FM311400 VRB04KT P6SM SCT015 BKN022
     FM311600 19005KT P6SM SCT030 BKN040=



000
FTUS42 KCAE 310500
TAFAGS
TAF
KAGS 310539Z 3106/0106 13004KT P6SM SCT120
     FM310800 VRB03KT 4SM BR SCT004
     FM311000 VRB03KT 1SM BR BKN003
     FM311200 VRB03KT 4SM BR BKN008
     FM311400 20005KT P6SM SCT010 BKN018
     FM311600 19005KT P6SM SCT030 BKN040=



000
FTUS42 KCAE 310500
TAFDNL
TAF
KDNL 310539Z 3106/0106 13004KT P6SM SCT120
     FM311000 VRB03KT P6SM BKN008
     FM311400 20005KT P6SM SCT010 BKN018
     FM311600 19005KT P6SM SCT030 BKN040=



000
FTUS42 KCAE 310500 AAA
TAFCUB
TAF AMD
KCUB 310525Z 3105/3124 13003KT P6SM SCT120
     FM311000 VRB03KT 5SM BR SCT004
      TEMPO 3111/3113 BKN003
     FM311300 VRB03KT 6SM BR BKN008
     FM311400 VRB04KT P6SM SCT015 BKN022
     FM311600 19005KT P6SM SCT030 BKN040=



000
FTUS42 KCAE 310500 AAA
TAFCAE
TAF AMD
KCAE 310525Z 3105/3124 13005KT P6SM SCT100
     FM311000 VRB03KT 4SM BR SCT004
      TEMPO 3111/3113 BKN003
     FM311300 VRB03KT 5SM BR BKN008
     FM311400 VRB04KT P6SM SCT015 BKN022
     FM311600 19005KT P6SM SCT030 BKN040=



000
FTUS42 KCAE 310500 AAA
TAFOGB
TAF AMD
KOGB 310525Z 3105/3124 14003KT P6SM SCT120
     FM310800 VRB03KT 4SM BR SCT003
     FM311100 VRB03KT 1SM BR BKN003
     FM311300 VRB03KT 4SM BR BKN008
     FM311500 20005KT P6SM SCT012 BKN020
     FM311600 19005KT P6SM SCT030 BKN040=



000
FTUS42 KCAE 310500 AAA
TAFDNL
TAF AMD
KDNL 310525Z 3105/3124 13004KT P6SM SCT120
     FM311000 VRB03KT P6SM BKN008
     FM311400 20005KT P6SM SCT010 BKN018
     FM311600 19005KT P6SM SCT030 BKN040=



000
FTUS42 KCAE 310500 AAA
TAFAGS
TAF AMD
KAGS 310525Z 3105/3124 13004KT P6SM SCT120
     FM310800 VRB03KT 4SM BR SCT004
     FM311000 VRB03KT 1SM BR BKN003
     FM311200 VRB03KT 4SM BR BKN008
     FM311400 20005KT P6SM SCT010 BKN018
     FM311600 19005KT P6SM SCT030 BKN040=



000
FTUS42 KCAE 310200 AAA
TAFAGS
TAF AMD
KAGS 310241Z 3103/3124 16007KT P6SM SCT120
     FM310800 VRB03KT 4SM BR SCT004
     FM311000 VRB03KT 1SM BR BKN003
     FM311200 VRB03KT 4SM BR BKN008
     FM311400 20005KT P6SM SCT010 BKN018
     FM311600 19005KT P6SM SCT030 BKN040=



000
FTUS42 KCAE 310200 AAA
TAFCUB
TAF AMD
KCUB 310241Z 3103/3124 VRB04KT P6SM SCT120
     FM311000 VRB03KT 5SM BR SCT004
      TEMPO 3111/3113 BKN003
     FM311300 VRB03KT 6SM BR BKN008
     FM311400 VRB04KT P6SM SCT015 BKN022
     FM311600 19005KT P6SM SCT030 BKN040=



000
FTUS42 KCAE 310200 AAA
TAFCAE
TAF AMD
KCAE 310241Z 3103/3124 12006KT P6SM SCT120
     FM311000 VRB03KT 3SM BR SCT004
      TEMPO 3111/3113 BKN003
     FM311300 VRB03KT 5SM BR BKN008
     FM311400 VRB04KT P6SM SCT015 BKN022
     FM311600 19005KT P6SM SCT030 BKN040=



000
FTUS42 KCAE 310200 AAA
TAFOGB
TAF AMD
KOGB 310241Z 3103/3124 14009KT P6SM SCT120
     FM310800 VRB03KT 4SM BR SCT003
     FM311100 VRB03KT 1SM BR BKN003
     FM311300 VRB03KT 4SM BR BKN008
     FM311500 20005KT P6SM SCT012 BKN020
     FM311600 19005KT P6SM SCT030 BKN040=



000
FTUS42 KCAE 310200 AAA
TAFDNL
TAF AMD
KDNL 310241Z 3103/3124 16007KT P6SM SCT120
     FM311000 VRB03KT P6SM BKN008
     FM311400 20005KT P6SM SCT010 BKN018
     FM311600 19005KT P6SM SCT030 BKN040=



000
FTUS42 KCAE 302300
TAFOGB
TAF
KOGB 302336Z 3100/3124 14009KT P6SM SCT060 BKN080
     FM310800 VRB03KT 4SM BR SCT003
     FM311100 VRB03KT 1SM BR BKN003
     FM311300 VRB03KT 4SM BR BKN008
     FM311500 20005KT P6SM SCT012 BKN020
     FM311600 19005KT P6SM SCT030 BKN040=



000
FTUS42 KCAE 302300
TAFDNL
TAF
KDNL 302336Z 3100/3124 16007KT P6SM SCT060
     FM311000 VRB03KT P6SM BKN008
     FM311400 20005KT P6SM SCT010 BKN018
     FM311600 19005KT P6SM SCT030 BKN040=



000
FTUS42 KCAE 302300
TAFCUB
TAF
KCUB 302336Z 3100/3124 VRB05KT P6SM SCT060
     FM311100 VRB03KT 5SM BR SCT004
      TEMPO 3111/3113 BKN003
     FM311300 VRB03KT 6SM BR BKN008
     FM311400 VRB04KT P6SM SCT015 BKN022
     FM311600 19005KT P6SM SCT030 BKN040=



000
FTUS42 KCAE 302300
TAFCAE
TAF
KCAE 302336Z 3100/3124 12006KT P6SM SCT060
     FM311000 VRB03KT 3SM BR SCT004
      TEMPO 3111/3113 BKN003
     FM311300 VRB03KT 5SM BR BKN008
     FM311400 VRB04KT P6SM SCT015 BKN022
     FM311600 19005KT P6SM SCT030 BKN040=



000
FTUS42 KCAE 302300
TAFAGS
TAF
KAGS 302336Z 3100/3124 16007KT P6SM SCT060
     FM310800 VRB03KT 4SM BR SCT004
     FM311000 VRB03KT 1SM BR BKN003
     FM311200 VRB03KT 4SM BR BKN008
     FM311400 20005KT P6SM SCT010 BKN018
     FM311600 19005KT P6SM SCT030 BKN040=



000
FTUS42 KCAE 302000 AAA
TAFCUB
TAF AMD
KCUB 302044Z 3021/3118 VRB05KT P6SM SCT060
     FM311100 VRB03KT 5SM BR SCT004
      TEMPO 3111/3113 BKN003
     FM311300 VRB03KT 6SM BR BKN008
     FM311400 VRB04KT P6SM SCT015 BKN022
     FM311600 19005KT P6SM SCT030 BKN040=



000
FTUS42 KCAE 302000 AAA
TAFCAE
TAF AMD
KCAE 302044Z 3021/3118 12006KT P6SM SCT060
     FM311000 VRB03KT 3SM BR SCT004
      TEMPO 3111/3113 BKN003
     FM311300 VRB03KT 5SM BR BKN008
     FM311400 VRB04KT P6SM SCT015 BKN022
     FM311600 19005KT P6SM SCT030 BKN040=



000
FTUS42 KCAE 302000 AAA
TAFOGB
TAF AMD
KOGB 302044Z 3021/3118 14009KT P6SM SCT060 BKN080
     FM310800 VRB03KT 4SM BR SCT003
     FM311100 VRB03KT 1SM BR BKN003
     FM311300 VRB03KT 4SM BR BKN008
     FM311500 20005KT P6SM BKN015
     FM311600 19005KT P6SM SCT030 BKN040=



000
FTUS42 KCAE 302000 AAA
TAFDNL
TAF AMD
KDNL 302044Z 3021/3118 16007KT P6SM VCSH SCT050
     FM311000 VRB03KT P6SM BKN008
     FM311400 20005KT P6SM SCT010 BKN018
     FM311600 19005KT P6SM SCT030 BKN040=



000
FTUS42 KCAE 302000 AAA
TAFAGS
TAF AMD
KAGS 302044Z 3021/3118 16007KT P6SM VCSH SCT050
     FM310800 VRB03KT 4SM BR SCT004
     FM311000 VRB03KT 1SM BR BKN003
     FM311200 VRB03KT 4SM BR BKN008
     FM311400 20005KT P6SM SCT010 BKN018
     FM311600 19005KT P6SM SCT030 BKN040=



    US Dept of Commerce
    National Oceanic and Atmospheric Administration
    National Weather Service
    1325 East West Highway
    Silver Spring, MD 20910
    Page Author: NWS Internet Services Team
Disclaimer
Information Quality
Credits
Glossary
Privacy Policy
Freedom of Information Act (FOIA)
About Us
Career Opportunities